Time;durP1;ratioP1;P1;durP2;ratioP2;P2;SDS_P1;SDS_P2;PMS_P1;PMS_P2;Temp;Humidity;BMP_temperature;BMP_pressure;BME280_temperature;BME280_humidity;BME280_pressure;Samples;Min_cycle;Max_cycle;Signal;HPM_P1;HPM_P2
2023/06/19 00:00:12;;;;;;;12.10;7.50;;;;;;;;;;110397;1276;22117;-79
2023/06/19 00:02:58;;;;;;;15.30;8.80;;;;;;;;;;110513;1253;21984;-79
2023/06/19 00:05:25;;;;;;;14.90;8.00;;;;;;;;;;110417;1270;22976;-79
2023/06/19 00:07:55;;;;;;;11.60;7.30;;;;;;;;;;110335;1276;22117;-79
2023/06/19 00:10:22;;;;;;;13.00;7.80;;;;;;;;;;110438;1275;22107;-79
2023/06/19 00:12:48;;;;;;;13.20;7.90;;;;;;;;;;110444;1276;22930;-79
2023/06/19 00:15:15;;;;;;;15.90;8.40;;;;;;;;;;110550;1261;22801;-79
2023/06/19 00:17:42;;;;;;;14.90;8.10;;;;;;;;;;110461;1276;22620;-79
2023/06/19 00:20:09;;;;;;;13.80;7.40;;;;;;;;;;110402;1276;22778;-80
2023/06/19 00:22:36;;;;;;;15.30;7.50;;;;;;;;;;110463;1276;22129;-80
2023/06/19 00:25:02;;;;;;;15.10;7.40;;;;;;;;;;110737;1260;22123;-79
2023/06/19 00:27:29;;;;;;;13.40;7.20;;;;;;;;;;110434;1276;22027;-79
2023/06/19 00:30:01;;;;;;;14.90;7.80;;;;;;;;;;110363;1276;22093;-79
2023/06/19 00:32:28;;;;;;;13.10;7.80;;;;;;;;;;110413;1276;22103;-79
2023/06/19 00:34:57;;;;;;;13.10;7.90;;;;;;;;;;110694;1257;22125;-80
2023/06/19 00:37:31;;;;;;;15.00;8.00;;;;;;;;;;110469;1265;22149;-79
2023/06/19 00:39:59;;;;;;;13.90;7.80;;;;;;;;;;110417;1276;22779;-79
2023/06/19 00:42:27;;;;;;;12.50;8.10;;;;;;;;;;110397;1278;23008;-79
2023/06/19 00:44:54;;;;;;;14.20;7.60;;;;;;;;;;110440;1257;22179;-79
2023/06/19 00:47:21;;;;;;;11.80;6.50;;;;;;;;;;110309;1276;22169;-79
2023/06/19 00:49:48;;;;;;;11.40;6.80;;;;;;;;;;110142;1277;22268;-79
2023/06/19 00:52:15;;;;;;;13.20;7.00;;;;;;;;;;110210;1278;22115;-79
2023/06/19 00:54:44;;;;;;;12.30;7.30;;;;;;;;;;110483;1258;22113;-79
2023/06/19 00:57:10;;;;;;;11.70;7.10;;;;;;;;;;110314;1275;22256;-79
2023/06/19 00:59:38;;;;;;;11.20;6.80;;;;;;;;;;110333;1278;22882;-79
2023/06/19 01:02:08;;;;;;;13.50;7.30;;;;;;;;;;110337;1273;22116;-79
2023/06/19 01:04:37;;;;;;;13.40;7.90;;;;;;;;;;110370;1257;22129;-79
2023/06/19 01:07:09;;;;;;;14.20;9.40;;;;;;;;;;110312;1277;22105;-79
2023/06/19 01:09:43;;;;;;;15.40;9.20;;;;;;;;;;110237;1278;22097;-79
2023/06/19 01:12:18;;;;;;;14.60;8.70;;;;;;;;;;110209;1273;22819;-79
2023/06/19 01:14:52;;;;;;;15.40;7.60;;;;;;;;;;110543;1254;22309;-79
2023/06/19 01:17:20;;;;;;;10.60;7.00;;;;;;;;;;110434;1270;22093;-79
2023/06/19 01:19:47;;;;;;;12.20;7.40;;;;;;;;;;110330;1277;22085;-79
2023/06/19 01:22:27;;;;;;;11.70;7.20;;;;;;;;;;110312;1277;22136;-79
2023/06/19 01:24:53;;;;;;;12.80;7.40;;;;;;;;;;110560;1254;22155;-79
2023/06/19 01:27:25;;;;;;;12.60;7.00;;;;;;;;;;110174;1277;22086;-79
2023/06/19 01:29:53;;;;;;;14.60;7.70;;;;;;;;;;110342;1277;22755;-79
2023/06/19 01:32:25;;;;;;;12.70;7.70;;;;;;;;;;110405;1270;22371;-79
2023/06/19 01:34:54;;;;;;;14.00;7.60;;;;;;;;;;110392;1254;22122;-79
2023/06/19 01:37:23;;;;;;;18.40;6.90;;;;;;;;;;110340;1278;22201;-79
2023/06/19 01:39:50;;;;;;;10.60;6.50;;;;;;;;;;110163;1277;22139;-79
2023/06/19 01:42:17;;;;;;;10.40;6.30;;;;;;;;;;110409;1278;22142;-79
2023/06/19 01:44:46;;;;;;;10.60;6.20;;;;;;;;;;110120;1278;22348;-79
2023/06/19 01:47:19;;;;;;;11.60;6.60;;;;;;;;;;110645;1263;22478;-80
2023/06/19 01:49:46;;;;;;;11.70;7.30;;;;;;;;;;110351;1270;22177;-79
2023/06/19 01:52:13;;;;;;;11.70;6.40;;;;;;;;;;110301;1278;22124;-79
2023/06/19 01:54:40;;;;;;;11.60;6.80;;;;;;;;;;110200;1273;22092;-79
2023/06/19 01:57:07;;;;;;;14.20;8.70;;;;;;;;;;110832;1257;22116;-79
2023/06/19 01:59:37;;;;;;;14.30;8.70;;;;;;;;;;110374;1278;22092;-79
2023/06/19 02:02:06;;;;;;;15.50;9.00;;;;;;;;;;110119;1278;22792;-79
2023/06/19 02:04:33;;;;;;;16.90;8.50;;;;;;;;;;110320;1278;22106;-79
2023/06/19 02:07:00;;;;;;;14.30;8.10;;;;;;;;;;110424;1257;22045;-80
2023/06/19 02:09:27;;;;;;;13.90;8.20;;;;;;;;;;110158;1278;21952;-79
2023/06/19 02:11:54;;;;;;;12.60;7.80;;;;;;;;;;110159;1278;22869;-79
2023/06/19 02:14:21;;;;;;;11.90;8.10;;;;;;;;;;110163;1278;22065;-79
2023/06/19 02:16:48;;;;;;;12.50;7.40;;;;;;;;;;110397;1260;22167;-79
2023/06/19 02:19:15;;;;;;;11.60;7.80;;;;;;;;;;110162;1278;22123;-79
2023/06/19 02:21:42;;;;;;;13.50;7.70;;;;;;;;;;110320;1272;22437;-80
2023/06/19 02:24:09;;;;;;;11.00;6.90;;;;;;;;;;110288;1278;21980;-79
2023/06/19 02:26:36;;;;;;;10.70;6.50;;;;;;;;;;110435;1257;22211;-78
2023/06/19 02:29:05;;;;;;;11.50;6.50;;;;;;;;;;110370;1278;22142;-79
2023/06/19 02:31:32;;;;;;;10.20;6.20;;;;;;;;;;110171;1278;22891;-79
2023/06/19 02:33:59;;;;;;;10.40;6.00;;;;;;;;;;110393;1278;22180;-79
2023/06/19 02:36:25;;;;;;;10.80;6.10;;;;;;;;;;110326;1260;22108;-79
2023/06/19 02:38:52;;;;;;;9.60;6.20;;;;;;;;;;110334;1278;22927;-79
2023/06/19 02:41:19;;;;;;;9.10;6.10;;;;;;;;;;110188;1278;22787;-79
2023/06/19 02:43:49;;;;;;;11.60;6.60;;;;;;;;;;110120;1278;22914;-79
2023/06/19 02:46:16;;;;;;;10.10;6.90;;;;;;;;;;110203;1257;22155;-79
2023/06/19 02:48:43;;;;;;;12.00;6.50;;;;;;;;;;110155;1278;21977;-79
2023/06/19 02:51:10;;;;;;;9.30;5.60;;;;;;;;;;110178;1278;22111;-79
2023/06/19 02:53:37;;;;;;;9.70;5.80;;;;;;;;;;110142;1278;22830;-79
2023/06/19 02:56:03;;;;;;;9.10;5.30;;;;;;;;;;110177;1278;22110;-79
2023/06/19 02:58:37;;;;;;;9.50;5.80;;;;;;;;;;110545;1257;22583;-79
2023/06/19 03:01:06;;;;;;;9.50;5.40;;;;;;;;;;110138;1278;22108;-79
2023/06/19 03:03:37;;;;;;;10.70;5.80;;;;;;;;;;110119;1278;22122;-79
2023/06/19 03:06:08;;;;;;;9.20;5.60;;;;;;;;;;110190;1278;22975;-79
2023/06/19 03:08:35;;;;;;;10.80;6.20;;;;;;;;;;110618;1257;22142;-79
2023/06/19 03:11:04;;;;;;;10.10;6.00;;;;;;;;;;110148;1278;22875;-78
2023/06/19 03:13:47;;;;;;;9.70;6.50;;;;;;;;;;110191;1278;22032;-79
2023/06/19 03:16:16;;;;;;;9.20;5.60;;;;;;;;;;110174;1278;21979;-80
2023/06/19 03:18:46;;;;;;;11.30;6.20;;;;;;;;;;110467;1259;22324;-78
2023/06/19 03:21:14;;;;;;;11.40;6.50;;;;;;;;;;110200;1278;22139;-78
2023/06/19 03:23:41;;;;;;;10.50;6.30;;;;;;;;;;110139;1278;22253;-78
2023/06/19 03:26:10;;;;;;;10.80;6.10;;;;;;;;;;110294;1278;22174;-79
2023/06/19 03:28:37;;;;;;;10.40;6.00;;;;;;;;;;110268;1259;22093;-79
2023/06/19 03:31:05;;;;;;;12.70;6.90;;;;;;;;;;110136;1278;22114;-79
2023/06/19 03:33:33;;;;;;;13.10;7.00;;;;;;;;;;110143;1278;22125;-79
2023/06/19 03:36:01;;;;;;;11.30;7.20;;;;;;;;;;110357;1275;22125;-79
2023/06/19 03:38:49;;;;;;;11.80;7.50;;;;;;;;;;110257;1259;22804;-79
2023/06/19 03:41:18;;;;;;;11.20;6.90;;;;;;;;;;110144;1278;22109;-79
2023/06/19 03:43:45;;;;;;;13.60;7.40;;;;;;;;;;110093;1274;22340;-79
2023/06/19 03:46:12;;;;;;;12.20;7.30;;;;;;;;;;110127;1275;22122;-79
2023/06/19 03:48:40;;;;;;;10.60;5.80;;;;;;;;;;110149;1262;22119;-79
2023/06/19 03:51:12;;;;;;;12.80;5.70;;;;;;;;;;110148;1279;22089;-79
2023/06/19 03:53:41;;;;;;;10.10;6.70;;;;;;;;;;110045;1280;22745;-79
2023/06/19 03:56:09;;;;;;;11.70;6.60;;;;;;;;;;110139;1280;22159;-80
2023/06/19 03:58:37;;;;;;;10.00;7.00;;;;;;;;;;110079;1259;22120;-79
2023/06/19 04:01:05;;;;;;;10.80;6.80;;;;;;;;;;110117;1280;22057;-80
2023/06/19 04:03:33;;;;;;;11.30;7.20;;;;;;;;;;110167;1280;22806;-79
2023/06/19 04:06:00;;;;;;;14.00;6.80;;;;;;;;;;110116;1280;21994;-79
2023/06/19 04:08:28;;;;;;;12.80;7.20;;;;;;;;;;110248;1257;22101;-79
2023/06/19 04:10:58;;;;;;;17.00;7.30;;;;;;;;;;110111;1280;22840;-79
2023/06/19 04:13:29;;;;;;;11.10;6.50;;;;;;;;;;110060;1279;22875;-79
2023/06/19 04:15:57;;;;;;;10.10;6.10;;;;;;;;;;110156;1280;22928;-80
2023/06/19 04:18:24;;;;;;;11.70;6.50;;;;;;;;;;110183;1259;22776;-79
2023/06/19 04:20:51;;;;;;;15.00;6.80;;;;;;;;;;110140;1280;22309;-79
2023/06/19 04:23:18;;;;;;;14.70;6.60;;;;;;;;;;110150;1280;22125;-80
2023/06/19 04:25:46;;;;;;;14.10;7.50;;;;;;;;;;110111;1275;22121;-79
2023/06/19 04:28:13;;;;;;;14.30;7.00;;;;;;;;;;110116;1256;22829;-80
2023/06/19 04:30:41;;;;;;;11.40;6.80;;;;;;;;;;110071;1279;22182;-80
2023/06/19 04:33:09;;;;;;;13.00;6.90;;;;;;;;;;110071;1280;22207;-79
2023/06/19 04:35:41;;;;;;;11.50;6.60;;;;;;;;;;110129;1279;22116;-79
2023/06/19 04:38:10;;;;;;;12.60;6.60;;;;;;;;;;110138;1280;22368;-79
2023/06/19 04:40:38;;;;;;;11.60;5.60;;;;;;;;;;110159;1258;22124;-80
2023/06/19 04:43:07;;;;;;;13.00;6.50;;;;;;;;;;110102;1273;22123;-80
2023/06/19 04:45:36;;;;;;;11.30;5.60;;;;;;;;;;110071;1280;22115;-79
2023/06/19 04:48:05;;;;;;;10.60;5.90;;;;;;;;;;110064;1280;22101;-79
2023/06/19 04:50:35;;;;;;;12.00;6.80;;;;;;;;;;110157;1264;22137;-79
2023/06/19 04:53:05;;;;;;;11.20;6.40;;;;;;;;;;110006;1277;22904;-80
2023/06/19 04:55:35;;;;;;;10.70;5.90;;;;;;;;;;110104;1280;22454;-79
2023/06/19 04:58:06;;;;;;;11.90;6.70;;;;;;;;;;110017;1280;22142;-79
2023/06/19 05:00:35;;;;;;;11.10;6.30;;;;;;;;;;110257;1263;22119;-79
2023/06/19 05:03:04;;;;;;;10.30;5.70;;;;;;;;;;110047;1280;22108;-80
2023/06/19 05:05:34;;;;;;;10.00;5.40;;;;;;;;;;110024;1280;22105;-79
2023/06/19 05:08:03;;;;;;;11.30;5.20;;;;;;;;;;110043;1277;22174;-79
2023/06/19 05:10:33;;;;;;;8.40;5.10;;;;;;;;;;110342;1263;22937;-79
2023/06/19 05:13:03;;;;;;;9.70;6.10;;;;;;;;;;110074;1280;22106;-80
2023/06/19 05:15:31;;;;;;;10.20;6.30;;;;;;;;;;110074;1280;22137;-80
2023/06/19 05:18:00;;;;;;;10.80;6.30;;;;;;;;;;110103;1280;22818;-80
2023/06/19 05:20:30;;;;;;;11.20;6.30;;;;;;;;;;110199;1258;22857;-79
2023/06/19 05:22:58;;;;;;;9.40;6.20;;;;;;;;;;110095;1280;22140;-79
2023/06/19 05:25:27;;;;;;;10.20;6.50;;;;;;;;;;110081;1280;22169;-79
2023/06/19 05:27:56;;;;;;;10.80;6.20;;;;;;;;;;110012;1280;22121;-80
2023/06/19 05:30:26;;;;;;;11.70;6.30;;;;;;;;;;110066;1263;22124;-79
2023/06/19 05:32:54;;;;;;;12.90;6.00;;;;;;;;;;110040;1280;22441;-79
2023/06/19 05:35:23;;;;;;;12.00;5.60;;;;;;;;;;110069;1280;23126;-80
2023/06/19 05:37:53;;;;;;;11.40;6.00;;;;;;;;;;110114;1280;22086;-79
2023/06/19 05:40:23;;;;;;;13.60;6.00;;;;;;;;;;110264;1263;22182;-79
2023/06/19 05:49:52;;;;;;;14.10;7.50;;;;;;;;;;103911;1295;546403;-80
2023/06/19 05:52:20;;;;;;;25.00;7.80;;;;;;;;;;106022;1282;22651;-80
2023/06/19 05:54:47;;;;;;;46.90;8.90;;;;;;;;;;106101;1288;22555;-81
2023/06/19 05:57:20;;;;;;;26.40;6.90;;;;;;;;;;106058;1288;24238;-82
2023/06/19 05:59:47;;;;;;;14.30;7.40;;;;;;;;;;106114;1279;24280;-80
2023/06/19 06:02:15;;;;;;;15.60;6.70;;;;;;;;;;106088;1288;24244;-78
2023/06/19 06:04:42;;;;;;;14.70;6.70;;;;;;;;;;104096;1285;3228600;-83
2023/06/19 06:07:10;;;;;;;11.00;6.40;;;;;;;;;;106453;1282;25261;-82
2023/06/19 06:09:37;;;;;;;13.80;6.20;;;;;;;;;;106611;1272;22522;-83
2023/06/19 06:12:04;;;;;;;12.30;6.60;;;;;;;;;;106772;1280;25277;-79
2023/06/19 06:14:31;;;;;;;14.80;7.00;;;;;;;;;;106612;1282;25339;-82
2023/06/19 06:16:57;;;;;;;18.70;6.70;;;;;;;;;;106469;1282;25372;-79
2023/06/19 06:19:27;;;;;;;21.70;7.00;;;;;;;;;;106547;1271;22527;-80
2023/06/19 06:21:53;;;;;;;25.60;7.30;;;;;;;;;;106727;1282;22530;-79
2023/06/19 06:24:20;;;;;;;24.30;6.70;;;;;;;;;;106531;1281;25328;-83
2023/06/19 06:26:47;;;;;;;18.30;6.10;;;;;;;;;;106536;1282;22533;-78
2023/06/19 06:29:14;;;;;;;14.40;5.40;;;;;;;;;;106462;1282;25462;-78
2023/06/19 06:31:41;;;;;;;16.10;5.80;;;;;;;;;;106573;1273;22653;-83
2023/06/19 06:34:08;;;;;;;18.40;6.20;;;;;;;;;;106825;1278;25511;-80
2023/06/19 06:36:35;;;;;;;17.90;6.50;;;;;;;;;;106892;1278;22776;-77
2023/06/19 06:39:02;;;;;;;16.70;6.30;;;;;;;;;;106764;1278;24255;-80
2023/06/19 06:41:28;;;;;;;15.40;5.90;;;;;;;;;;106878;1260;25227;-79
2023/06/19 06:43:55;;;;;;;14.70;6.00;;;;;;;;;;106834;1278;22535;-79
2023/06/19 06:46:22;;;;;;;12.10;5.80;;;;;;;;;;106873;1278;22602;-81
2023/06/19 06:48:49;;;;;;;15.30;5.70;;;;;;;;;;106689;1278;24802;-82
2023/06/19 06:51:16;;;;;;;10.70;6.10;;;;;;;;;;106808;1261;22530;-80
2023/06/19 06:53:43;;;;;;;11.30;6.30;;;;;;;;;;106748;1278;25227;-82
2023/06/19 06:56:10;;;;;;;10.70;5.70;;;;;;;;;;107077;1275;24190;-80
2023/06/19 06:58:38;;;;;;;14.50;5.90;;;;;;;;;;106981;1274;22530;-78
2023/06/19 07:01:05;;;;;;;10.30;6.10;;;;;;;;;;106912;1260;22544;-79
2023/06/19 07:03:32;;;;;;;11.00;5.60;;;;;;;;;;106930;1275;22480;-81
2023/06/19 07:05:59;;;;;;;14.30;6.10;;;;;;;;;;107102;1275;22533;-83
2023/06/19 07:08:25;;;;;;;13.20;5.60;;;;;;;;;;107053;1275;22520;-79
2023/06/19 07:10:52;;;;;;;14.90;6.30;;;;;;;;;;107031;1266;24318;-83
2023/06/19 07:13:19;;;;;;;14.00;5.80;;;;;;;;;;106873;1275;24724;-82
2023/06/19 07:15:46;;;;;;;11.00;5.70;;;;;;;;;;107089;1275;24239;-79
2023/06/19 07:18:12;;;;;;;10.00;5.70;;;;;;;;;;106922;1275;24925;-85
2023/06/19 07:20:39;;;;;;;10.20;5.20;;;;;;;;;;106936;1257;22518;-82
2023/06/19 07:23:06;;;;;;;10.00;5.70;;;;;;;;;;107178;1260;25316;-80
2023/06/19 07:25:33;;;;;;;16.30;6.20;;;;;;;;;;107343;1275;24242;-83
2023/06/19 07:28:01;;;;;;;10.70;5.60;;;;;;;;;;107040;1275;24213;-80
2023/06/19 07:30:28;;;;;;;9.20;5.30;;;;;;;;;;107139;1275;22538;-78
2023/06/19 07:32:54;;;;;;;9.40;5.60;;;;;;;;;;106937;1275;24258;-85
2023/06/19 07:35:21;;;;;;;8.80;5.30;;;;;;;;;;106978;1275;22543;-82
2023/06/19 07:37:48;;;;;;;9.80;5.30;;;;;;;;;;107124;1275;24266;-83
2023/06/19 07:40:15;;;;;;;8.20;5.40;;;;;;;;;;106932;1275;22524;-84
2023/06/19 07:42:42;;;;;;;9.30;5.40;;;;;;;;;;107128;1257;22574;-82
2023/06/19 07:45:09;;;;;;;16.70;5.00;;;;;;;;;;107147;1275;24199;-81
2023/06/19 07:47:36;;;;;;;11.00;5.70;;;;;;;;;;107042;1275;25447;-79
2023/06/19 07:50:03;;;;;;;9.50;5.40;;;;;;;;;;106933;1275;25397;-81
2023/06/19 07:52:33;;;;;;;11.20;5.50;;;;;;;;;;107215;1256;24190;-84
2023/06/19 07:55:00;;;;;;;9.40;5.50;;;;;;;;;;106928;1276;22650;-82
2023/06/19 07:57:27;;;;;;;9.10;5.70;;;;;;;;;;107108;1276;22533;-81
2023/06/19 07:59:58;;;;;;;9.50;5.40;;;;;;;;;;106899;1276;23914;-83
2023/06/19 08:02:25;;;;;;;8.60;5.60;;;;;;;;;;107108;1261;25440;-78
2023/06/19 08:04:52;;;;;;;9.40;5.90;;;;;;;;;;106903;1276;22530;-82
2023/06/19 08:07:19;;;;;;;8.40;5.40;;;;;;;;;;106836;1276;22521;-79
2023/06/19 08:09:45;;;;;;;9.50;5.30;;;;;;;;;;106939;1276;24189;-80
2023/06/19 08:12:12;;;;;;;9.50;5.80;;;;;;;;;;106881;1258;22531;-85
2023/06/19 08:14:39;;;;;;;9.80;6.10;;;;;;;;;;106976;1276;24250;-81
2023/06/19 08:17:06;;;;;;;10.20;5.50;;;;;;;;;;106998;1276;23880;-79
2023/06/19 08:19:35;;;;;;;10.20;5.60;;;;;;;;;;106945;1276;25340;-80
2023/06/19 08:22:02;;;;;;;9.30;5.50;;;;;;;;;;107058;1276;24193;-85
2023/06/19 08:24:29;;;;;;;11.70;5.70;;;;;;;;;;106972;1276;24254;-84
2023/06/19 08:26:56;;;;;;;11.50;6.00;;;;;;;;;;106972;1276;22534;-80
2023/06/19 08:29:23;;;;;;;11.70;6.80;;;;;;;;;;106942;1276;22581;-81
2023/06/19 08:31:59;;;;;;;9.70;6.00;;;;;;;;;;106940;1260;22650;-79
2023/06/19 08:34:29;;;;;;;12.10;5.60;;;;;;;;;;106820;1275;24233;-78
2023/06/19 08:36:56;;;;;;;10.60;6.50;;;;;;;;;;106896;1276;22537;-86
2023/06/19 08:39:23;;;;;;;12.60;6.80;;;;;;;;;;107090;1276;24357;-85
2023/06/19 08:41:52;;;;;;;14.80;6.40;;;;;;;;;;106874;1276;23643;-79
2023/06/19 08:44:19;;;;;;;10.70;6.10;;;;;;;;;;106861;1258;24218;-80
2023/06/19 08:46:46;;;;;;;10.00;5.70;;;;;;;;;;106880;1276;22529;-80
2023/06/19 08:49:13;;;;;;;11.10;6.30;;;;;;;;;;107037;1276;22533;-83
2023/06/19 08:51:42;;;;;;;11.00;6.20;;;;;;;;;;106906;1275;22546;-83
2023/06/19 08:54:13;;;;;;;12.70;6.30;;;;;;;;;;106876;1267;25273;-81
2023/06/19 08:56:42;;;;;;;11.10;5.80;;;;;;;;;;106928;1276;22651;-80
2023/06/19 08:59:11;;;;;;;10.70;5.50;;;;;;;;;;106924;1276;25321;-82
2023/06/19 09:01:51;;;;;;;9.50;5.90;;;;;;;;;;106899;1276;22533;-79
2023/06/19 09:04:20;;;;;;;10.50;5.60;;;;;;;;;;106944;1257;25399;-77
2023/06/19 09:06:52;;;;;;;9.10;5.30;;;;;;;;;;106907;1270;25375;-78
2023/06/19 09:09:22;;;;;;;9.50;5.40;;;;;;;;;;106865;1275;23467;-79
2023/06/19 09:12:17;;;;;;;8.10;5.30;;;;;;;;;;107012;1276;24206;-79
2023/06/19 09:14:50;;;;;;;11.00;5.80;;;;;;;;;;106926;1257;22539;-79
2023/06/19 09:24:40;;;;;;;9.00;5.60;;;;;;;;;;103785;1292;545798;-79
2023/06/19 09:27:18;;;;;;;7.90;5.30;;;;;;;;;;106401;1286;25272;-80
2023/06/19 09:29:45;;;;;;;9.20;6.00;;;;;;;;;;106188;1287;22535;-79
2023/06/19 09:32:14;;;;;;;8.50;6.00;;;;;;;;;;106142;1285;22529;-80
2023/06/19 09:34:40;;;;;;;9.60;6.00;;;;;;;;;;106156;1281;22545;-86
2023/06/19 09:37:07;;;;;;;9.70;5.20;;;;;;;;;;104205;1281;3110842;-80
2023/06/19 09:39:34;;;;;;;8.90;5.60;;;;;;;;;;107219;1275;22649;-79
2023/06/19 09:42:03;;;;;;;9.60;5.70;;;;;;;;;;107160;1275;23130;-82
2023/06/19 09:44:31;;;;;;;8.50;5.70;;;;;;;;;;107096;1264;22509;-84
2023/06/19 09:47:04;;;;;;;7.90;5.20;;;;;;;;;;110664;1274;22402;-77
2023/06/19 09:49:32;;;;;;;8.80;5.60;;;;;;;;;;110645;1274;22200;-78
2023/06/19 09:51:58;;;;;;;9.20;4.80;;;;;;;;;;110574;1274;22435;-78
2023/06/19 09:54:24;;;;;;;8.90;5.40;;;;;;;;;;110530;1259;22115;-77
2023/06/19 09:56:51;;;;;;;9.50;5.60;;;;;;;;;;110588;1275;22627;-77
2023/06/19 09:59:18;;;;;;;9.00;5.00;;;;;;;;;;110526;1275;22380;-78
2023/06/19 10:01:45;;;;;;;7.90;4.80;;;;;;;;;;110571;1275;22934;-77
2023/06/19 10:04:12;;;;;;;8.10;5.40;;;;;;;;;;110540;1251;22164;-77
2023/06/19 10:06:45;;;;;;;9.80;6.00;;;;;;;;;;110639;1274;22318;-78
2023/06/19 10:09:13;;;;;;;8.30;5.00;;;;;;;;;;110495;1274;22708;-78
2023/06/19 10:11:52;;;;;;;8.20;5.30;;;;;;;;;;110584;1274;22125;-78
2023/06/19 10:14:22;;;;;;;8.40;5.00;;;;;;;;;;110545;1255;22233;-77
2023/06/19 10:16:48;;;;;;;8.60;5.50;;;;;;;;;;110604;1275;22146;-78
2023/06/19 10:19:16;;;;;;;11.30;5.50;;;;;;;;;;110397;1275;22155;-78
2023/06/19 10:21:46;;;;;;;7.80;5.40;;;;;;;;;;110552;1275;22592;-77
2023/06/19 10:24:19;;;;;;;8.80;5.50;;;;;;;;;;110564;1253;23089;-77
2023/06/19 10:26:59;;;;;;;9.30;4.90;;;;;;;;;;110550;1275;22796;-79
2023/06/19 10:29:27;;;;;;;10.90;5.40;;;;;;;;;;110633;1275;22994;-77
2023/06/19 10:31:56;;;;;;;8.70;5.20;;;;;;;;;;110541;1274;22101;-77
2023/06/19 10:34:32;;;;;;;10.60;5.60;;;;;;;;;;110593;1257;22565;-77
2023/06/19 10:36:59;;;;;;;9.90;5.40;;;;;;;;;;110509;1272;22295;-78
2023/06/19 10:39:25;;;;;;;8.70;5.40;;;;;;;;;;110539;1276;22358;-79
2023/06/19 10:41:52;;;;;;;7.30;4.80;;;;;;;;;;110287;1276;22988;-79
2023/06/19 10:44:18;;;;;;;10.00;5.40;;;;;;;;;;110193;1277;22137;-79
2023/06/19 10:46:44;;;;;;;9.20;5.90;;;;;;;;;;110337;1262;22152;-77
2023/06/19 10:49:11;;;;;;;9.00;5.50;;;;;;;;;;110456;1276;22839;-77
2023/06/19 10:51:38;;;;;;;7.90;5.00;;;;;;;;;;110607;1276;22115;-77
2023/06/19 10:54:04;;;;;;;8.00;5.10;;;;;;;;;;110472;1276;22149;-78
2023/06/19 10:56:31;;;;;;;9.30;5.50;;;;;;;;;;110164;1266;22603;-78
2023/06/19 10:59:05;;;;;;;9.90;5.40;;;;;;;;;;110195;1277;22289;-79
2023/06/19 11:01:36;;;;;;;8.10;4.80;;;;;;;;;;110219;1277;22886;-77
2023/06/19 11:04:11;;;;;;;10.70;5.60;;;;;;;;;;110199;1277;22095;-78
2023/06/19 11:06:38;;;;;;;8.30;5.40;;;;;;;;;;110571;1260;22109;-78
2023/06/19 11:09:05;;;;;;;10.70;5.30;;;;;;;;;;110628;1276;22785;-78
2023/06/19 11:11:35;;;;;;;8.50;5.50;;;;;;;;;;110651;1276;22985;-79
2023/06/19 11:14:01;;;;;;;7.50;5.10;;;;;;;;;;110303;1276;22401;-79
2023/06/19 11:16:30;;;;;;;8.30;4.70;;;;;;;;;;110444;1260;22328;-79
2023/06/19 11:18:57;;;;;;;8.30;4.60;;;;;;;;;;110242;1277;22817;-79
2023/06/19 11:21:30;;;;;;;8.70;5.10;;;;;;;;;;110357;1277;22128;-81
2023/06/19 11:23:57;;;;;;;8.30;5.40;;;;;;;;;;110318;1276;22102;-79
2023/06/19 11:26:31;;;;;;;9.50;5.80;;;;;;;;;;110444;1267;22158;-78
2023/06/19 11:28:57;;;;;;;8.70;5.20;;;;;;;;;;110479;1276;22087;-78
2023/06/19 11:31:27;;;;;;;8.70;5.30;;;;;;;;;;110462;1276;22789;-79
2023/06/19 11:33:57;;;;;;;10.50;5.50;;;;;;;;;;110452;1276;22120;-78
2023/06/19 11:36:24;;;;;;;7.70;5.50;;;;;;;;;;110292;1272;22154;-77
2023/06/19 11:38:53;;;;;;;8.20;5.20;;;;;;;;;;110302;1277;22765;-79
2023/06/19 11:41:27;;;;;;;8.20;5.30;;;;;;;;;;110319;1277;22121;-78
2023/06/19 11:44:02;;;;;;;9.60;5.60;;;;;;;;;;110261;1278;22418;-79
2023/06/19 11:46:29;;;;;;;10.10;5.80;;;;;;;;;;110282;1269;22128;-79
2023/06/19 11:49:07;;;;;;;8.30;5.40;;;;;;;;;;110245;1276;22476;-78
2023/06/19 11:51:34;;;;;;;10.20;6.50;;;;;;;;;;110528;1273;22870;-80
2023/06/19 11:54:01;;;;;;;10.00;5.90;;;;;;;;;;110393;1264;22141;-78
2023/06/19 11:56:27;;;;;;;10.50;5.70;;;;;;;;;;110452;1257;22229;-78
2023/06/19 11:58:53;;;;;;;9.40;5.50;;;;;;;;;;110215;1278;22438;-78
2023/06/19 12:01:20;;;;;;;10.10;6.10;;;;;;;;;;110347;1278;22599;-77
2023/06/19 12:04:07;;;;;;;9.80;5.60;;;;;;;;;;110198;1278;22171;-79
2023/06/19 12:06:41;;;;;;;7.80;4.80;;;;;;;;;;110345;1257;22125;-79
2023/06/19 12:09:08;;;;;;;8.60;5.10;;;;;;;;;;110499;1276;22131;-79
2023/06/19 12:11:35;;;;;;;8.30;5.70;;;;;;;;;;110429;1276;22150;-80
2023/06/19 12:14:08;;;;;;;9.60;5.90;;;;;;;;;;110437;1270;21941;-79
2023/06/19 12:16:36;;;;;;;9.30;5.50;;;;;;;;;;110441;1255;22210;-79
2023/06/19 12:19:03;;;;;;;9.40;5.40;;;;;;;;;;110195;1268;22126;-80
2023/06/19 12:21:30;;;;;;;8.10;5.00;;;;;;;;;;110153;1277;22158;-79
2023/06/19 12:23:56;;;;;;;9.50;5.60;;;;;;;;;;110246;1277;22126;-78
2023/06/19 12:26:25;;;;;;;9.00;5.30;;;;;;;;;;110139;1273;22186;-78
2023/06/19 12:28:51;;;;;;;8.00;5.30;;;;;;;;;;110753;1254;22169;-78
2023/06/19 12:31:17;;;;;;;8.50;5.10;;;;;;;;;;110608;1276;22688;-78
2023/06/19 12:33:44;;;;;;;9.30;5.80;;;;;;;;;;110348;1276;22345;-77
2023/06/19 12:36:13;;;;;;;7.70;5.10;;;;;;;;;;110472;1276;22114;-78
2023/06/19 12:38:40;;;;;;;9.00;5.60;;;;;;;;;;110604;1254;22090;-78
2023/06/19 12:41:06;;;;;;;8.60;5.00;;;;;;;;;;110218;1277;22132;-78
2023/06/19 12:43:33;;;;;;;8.70;5.70;;;;;;;;;;110185;1279;22217;-79
2023/06/19 12:46:00;;;;;;;7.80;5.00;;;;;;;;;;110210;1279;23062;-78
2023/06/19 12:48:26;;;;;;;8.00;5.70;;;;;;;;;;110365;1257;22249;-77
2023/06/19 12:50:53;;;;;;;9.50;5.40;;;;;;;;;;110325;1277;22165;-77
2023/06/19 12:53:19;;;;;;;10.30;6.30;;;;;;;;;;110443;1277;22874;-77
2023/06/19 12:55:45;;;;;;;10.00;5.50;;;;;;;;;;110350;1278;22140;-77
2023/06/19 12:58:11;;;;;;;8.40;5.90;;;;;;;;;;110460;1257;22419;-78
2023/06/19 13:00:37;;;;;;;8.00;5.80;;;;;;;;;;110084;1279;22151;-77
2023/06/19 13:03:03;;;;;;;8.60;5.60;;;;;;;;;;110142;1278;22095;-77
2023/06/19 13:05:30;;;;;;;8.50;4.80;;;;;;;;;;110234;1279;22923;-78
2023/06/19 13:07:59;;;;;;;9.40;5.40;;;;;;;;;;110282;1257;22092;-77
2023/06/19 13:10:25;;;;;;;8.40;5.30;;;;;;;;;;110718;1267;22606;-79
2023/06/19 13:12:54;;;;;;;55.40;31.80;;;;;;;;;;110401;1264;22120;-78
2023/06/19 13:15:20;;;;;;;31.80;19.20;;;;;;;;;;110336;1277;22191;-78
2023/06/19 13:17:46;;;;;;;17.20;10.50;;;;;;;;;;110132;1257;22039;-77
2023/06/19 13:20:14;;;;;;;39.80;25.80;;;;;;;;;;110116;1279;23098;-77
2023/06/19 13:22:40;;;;;;;53.40;34.10;;;;;;;;;;110175;1279;22246;-77
2023/06/19 13:25:06;;;;;;;15.50;8.50;;;;;;;;;;110223;1279;22158;-77
2023/06/19 13:27:32;;;;;;;10.40;5.90;;;;;;;;;;110247;1279;21726;-77
2023/06/19 13:30:00;;;;;;;10.50;5.20;;;;;;;;;;110310;1259;22173;-77
2023/06/19 13:32:26;;;;;;;40.80;29.10;;;;;;;;;;110198;1277;22853;-77
2023/06/19 13:34:52;;;;;;;23.50;16.80;;;;;;;;;;110314;1277;22124;-77
2023/06/19 13:37:19;;;;;;;13.90;8.80;;;;;;;;;;110310;1277;22343;-77
2023/06/19 13:39:45;;;;;;;9.90;6.20;;;;;;;;;;110314;1257;22132;-77
2023/06/19 13:42:12;;;;;;;14.20;9.10;;;;;;;;;;110133;1279;22176;-77
2023/06/19 13:44:38;;;;;;;16.50;10.40;;;;;;;;;;110183;1279;22572;-77
2023/06/19 13:47:07;;;;;;;10.60;6.10;;;;;;;;;;110119;1279;22131;-78
2023/06/19 13:49:33;;;;;;;10.30;5.30;;;;;;;;;;110330;1257;22128;-77
2023/06/19 13:52:02;;;;;;;10.40;5.30;;;;;;;;;;110365;1278;21914;-78
2023/06/19 13:54:29;;;;;;;9.40;5.40;;;;;;;;;;110219;1278;22186;-78
2023/06/19 13:56:55;;;;;;;13.00;6.40;;;;;;;;;;110437;1277;22244;-79
2023/06/19 13:59:21;;;;;;;8.20;4.90;;;;;;;;;;110325;1258;22262;-78
2023/06/19 14:01:47;;;;;;;9.70;5.40;;;;;;;;;;110098;1279;22117;-78
2023/06/19 14:04:13;;;;;;;8.60;5.30;;;;;;;;;;110112;1279;22246;-78
2023/06/19 14:06:41;;;;;;;9.70;5.80;;;;;;;;;;110118;1279;23083;-78
2023/06/19 14:09:08;;;;;;;9.60;5.20;;;;;;;;;;110176;1257;22140;-78
2023/06/19 14:11:34;;;;;;;9.30;6.10;;;;;;;;;;110221;1278;22129;-78
2023/06/19 14:14:01;;;;;;;15.60;6.80;;;;;;;;;;110365;1278;22827;-79
2023/06/19 14:16:27;;;;;;;9.10;5.90;;;;;;;;;;110175;1278;22144;-78
2023/06/19 14:18:53;;;;;;;9.40;5.30;;;;;;;;;;110287;1256;22714;-79
2023/06/19 14:21:19;;;;;;;12.10;6.20;;;;;;;;;;110029;1279;22792;-79
2023/06/19 14:23:45;;;;;;;8.30;5.40;;;;;;;;;;110118;1279;22103;-79
2023/06/19 14:26:11;;;;;;;10.90;5.90;;;;;;;;;;110114;1279;23146;-78
2023/06/19 14:28:39;;;;;;;8.80;6.30;;;;;;;;;;110146;1279;22150;-79
2023/06/19 14:31:05;;;;;;;9.50;5.60;;;;;;;;;;110456;1256;22144;-79
2023/06/19 14:33:32;;;;;;;9.10;5.70;;;;;;;;;;110193;1278;22919;-78
2023/06/19 14:35:59;;;;;;;9.90;6.20;;;;;;;;;;110208;1278;22612;-79
2023/06/19 14:38:27;;;;;;;9.80;5.80;;;;;;;;;;110293;1272;22189;-79
2023/06/19 14:40:53;;;;;;;10.20;6.30;;;;;;;;;;110326;1260;22094;-78